Emporia, Kansas
Current Conditions -  °F | °C
As of 10:53 AM on Thursday 18 Dec 2014 (Local Time) from KEMP Reporting Station
Haze Haze  
Wind Chill: 24°   Ceiling: 300
Heat Index: 29°   Visibility: 1.7mi
Dew Point: 29°   Wind: 5mph
Humidity: 100%   Direction: 60°ENE
Pressure: 30.21"   Gusts: NA
Location:  38.41°N, 96.18°W
Report Text: KEMP 181653Z AUTO 06004KT 1 3/4SM BR OVC003 M02/M02 A3021 RMK AO2 SLP247 T10171017
Loading
Personal Weather Stations






























Interactive Weather Map New forecast layout! Learn more

10-Day Weather Forecast

Advertisements
Track Severe Weather on mobile